sensor_id;sensor_type;location;lat;lon;timestamp;temperature;humidity
65072;DHT22;51663;52.310;17.016;2024-01-06T00:01:22;21.30;30.00
65072;DHT22;51663;52.310;17.016;2024-01-06T00:04:24;21.50;30.00
65072;DHT22;51663;52.310;17.016;2024-01-06T00:07:27;21.80;29.70
65072;DHT22;51663;52.310;17.016;2024-01-06T00:10:29;22.40;29.40
65072;DHT22;51663;52.310;17.016;2024-01-06T00:13:32;22.20;29.30
65072;DHT22;51663;52.310;17.016;2024-01-06T00:16:35;22.40;29.00
65072;DHT22;51663;52.310;17.016;2024-01-06T00:19:37;22.30;29.00
65072;DHT22;51663;52.310;17.016;2024-01-06T00:22:39;22.10;29.10
65072;DHT22;51663;52.310;17.016;2024-01-06T00:25:43;22.50;29.40
65072;DHT22;51663;52.310;17.016;2024-01-06T00:28:45;22.70;29.20
65072;DHT22;51663;52.310;17.016;2024-01-06T00:31:49;22.80;28.80
65072;DHT22;51663;52.310;17.016;2024-01-06T00:34:52;22.30;29.20
65072;DHT22;51663;52.310;17.016;2024-01-06T00:37:54;21.60;29.70
65072;DHT22;51663;52.310;17.016;2024-01-06T00:40:57;22.30;29.70
65072;DHT22;51663;52.310;17.016;2024-01-06T00:44:01;22.30;29.40
65072;DHT22;51663;52.310;17.016;2024-01-06T00:47:03;22.60;29.10
65072;DHT22;51663;52.310;17.016;2024-01-06T00:50:06;22.10;29.40
65072;DHT22;51663;52.310;17.016;2024-01-06T00:53:08;22.00;29.20
65072;DHT22;51663;52.310;17.016;2024-01-06T00:56:11;21.70;30.50
65072;DHT22;51663;52.310;17.016;2024-01-06T00:59:13;22.00;29.80
65072;DHT22;51663;52.310;17.016;2024-01-06T01:02:15;22.40;29.40
65072;DHT22;51663;52.310;17.016;2024-01-06T01:05:18;22.80;29.20
65072;DHT22;51663;52.310;17.016;2024-01-06T01:08:21;22.00;29.20
65072;DHT22;51663;52.310;17.016;2024-01-06T01:11:24;22.70;29.20
65072;DHT22;51663;52.310;17.016;2024-01-06T01:14:26;22.70;29.10
65072;DHT22;51663;52.310;17.016;2024-01-06T01:17:29;22.20;29.10
65072;DHT22;51663;52.310;17.016;2024-01-06T01:20:32;21.80;29.40
65072;DHT22;51663;52.310;17.016;2024-01-06T01:23:34;21.60;29.80
65072;DHT22;51663;52.310;17.016;2024-01-06T01:26:36;21.80;29.70
65072;DHT22;51663;52.310;17.016;2024-01-06T01:29:38;21.60;29.80
65072;DHT22;51663;52.310;17.016;2024-01-06T01:32:40;21.50;29.90
65072;DHT22;51663;52.310;17.016;2024-01-06T01:35:43;21.70;29.90
65072;DHT22;51663;52.310;17.016;2024-01-06T01:38:45;22.20;29.30
65072;DHT22;51663;52.310;17.016;2024-01-06T01:41:47;22.10;29.30
65072;DHT22;51663;52.310;17.016;2024-01-06T01:44:50;21.80;29.50
65072;DHT22;51663;52.310;17.016;2024-01-06T01:47:52;21.70;29.60
65072;DHT22;51663;52.310;17.016;2024-01-06T01:50:55;22.00;29.30
65072;DHT22;51663;52.310;17.016;2024-01-06T01:53:58;22.70;29.00
65072;DHT22;51663;52.310;17.016;2024-01-06T01:57:02;22.90;28.60
65072;DHT22;51663;52.310;17.016;2024-01-06T02:00:05;22.50;28.70
65072;DHT22;51663;52.310;17.016;2024-01-06T02:03:09;21.90;29.40
65072;DHT22;51663;52.310;17.016;2024-01-06T02:06:15;22.10;29.20
65072;DHT22;51663;52.310;17.016;2024-01-06T02:09:18;22.10;29.10
65072;DHT22;51663;52.310;17.016;2024-01-06T02:12:20;21.60;29.20
65072;DHT22;51663;52.310;17.016;2024-01-06T02:15:23;21.20;29.50
65072;DHT22;51663;52.310;17.016;2024-01-06T02:18:25;21.20;30.20
65072;DHT22;51663;52.310;17.016;2024-01-06T02:21:30;21.60;29.80
65072;DHT22;51663;52.310;17.016;2024-01-06T02:24:34;22.00;29.30
65072;DHT22;51663;52.310;17.016;2024-01-06T02:27:40;22.10;29.00
65072;DHT22;51663;52.310;17.016;2024-01-06T02:30:43;22.00;28.90
65072;DHT22;51663;52.310;17.016;2024-01-06T02:33:46;21.70;29.60
65072;DHT22;51663;52.310;17.016;2024-01-06T02:55:44;22.30;28.70
65072;DHT22;51663;52.310;17.016;2024-01-06T02:58:46;22.70;28.40
65072;DHT22;51663;52.310;17.016;2024-01-06T03:01:50;22.10;29.00
65072;DHT22;51663;52.310;17.016;2024-01-06T03:04:52;21.50;29.40
65072;DHT22;51663;52.310;17.016;2024-01-06T03:07:54;21.70;29.40
65072;DHT22;51663;52.310;17.016;2024-01-06T03:10:57;20.90;30.30
65072;DHT22;51663;52.310;17.016;2024-01-06T03:13:59;21.90;29.40
65072;DHT22;51663;52.310;17.016;2024-01-06T03:17:02;21.90;29.20
65072;DHT22;51663;52.310;17.016;2024-01-06T03:20:05;21.70;29.10
65072;DHT22;51663;52.310;17.016;2024-01-06T03:23:07;22.10;28.90
65072;DHT22;51663;52.310;17.016;2024-01-06T03:26:11;21.20;30.00
65072;DHT22;51663;52.310;17.016;2024-01-06T03:29:15;21.90;29.30
65072;DHT22;51663;52.310;17.016;2024-01-06T03:32:17;21.20;29.60
65072;DHT22;51663;52.310;17.016;2024-01-06T03:49:03;20.90;30.50
65072;DHT22;51663;52.310;17.016;2024-01-06T03:52:06;20.90;30.20
65072;DHT22;51663;52.310;17.016;2024-01-06T03:55:08;20.50;31.00
65072;DHT22;51663;52.310;17.016;2024-01-06T03:58:10;21.10;30.20
65072;DHT22;51663;52.310;17.016;2024-01-06T04:01:13;21.20;30.20
65072;DHT22;51663;52.310;17.016;2024-01-06T04:04:15;21.80;29.50
65072;DHT22;51663;52.310;17.016;2024-01-06T04:07:18;22.10;28.90
65072;DHT22;51663;52.310;17.016;2024-01-06T04:10:20;22.30;29.10
65072;DHT22;51663;52.310;17.016;2024-01-06T04:13:22;22.20;28.90
65072;DHT22;51663;52.310;17.016;2024-01-06T04:16:27;22.00;28.90
65072;DHT22;51663;52.310;17.016;2024-01-06T04:19:29;22.30;28.80
65072;DHT22;51663;52.310;17.016;2024-01-06T04:22:32;22.10;28.70
65072;DHT22;51663;52.310;17.016;2024-01-06T04:25:34;21.80;29.20
65072;DHT22;51663;52.310;17.016;2024-01-06T04:28:36;21.70;29.30
65072;DHT22;51663;52.310;17.016;2024-01-06T04:31:40;21.40;29.80
65072;DHT22;51663;52.310;17.016;2024-01-06T04:34:44;21.20;29.50
65072;DHT22;51663;52.310;17.016;2024-01-06T04:37:46;21.40;29.70
65072;DHT22;51663;52.310;17.016;2024-01-06T04:40:49;21.30;29.40
65072;DHT22;51663;52.310;17.016;2024-01-06T04:43:51;21.40;29.40
65072;DHT22;51663;52.310;17.016;2024-01-06T04:46:54;21.80;29.30
65072;DHT22;51663;52.310;17.016;2024-01-06T04:49:56;21.80;29.30
65072;DHT22;51663;52.310;17.016;2024-01-06T04:52:58;22.00;28.90
65072;DHT22;51663;52.310;17.016;2024-01-06T04:56:00;21.60;29.80
65072;DHT22;51663;52.310;17.016;2024-01-06T04:59:03;21.80;29.20
65072;DHT22;51663;52.310;17.016;2024-01-06T05:02:05;21.80;29.10
65072;DHT22;51663;52.310;17.016;2024-01-06T05:05:08;21.00;29.60
65072;DHT22;51663;52.310;17.016;2024-01-06T05:08:10;21.00;29.80
65072;DHT22;51663;52.310;17.016;2024-01-06T05:11:13;21.60;29.50
65072;DHT22;51663;52.310;17.016;2024-01-06T05:14:15;21.20;30.00
65072;DHT22;51663;52.310;17.016;2024-01-06T05:17:17;21.90;29.40
65072;DHT22;51663;52.310;17.016;2024-01-06T05:20:19;22.10;28.70
65072;DHT22;51663;52.310;17.016;2024-01-06T05:23:22;22.00;28.60
65072;DHT22;51663;52.310;17.016;2024-01-06T05:26:24;21.90;28.80
65072;DHT22;51663;52.310;17.016;2024-01-06T05:29:26;21.90;29.10
65072;DHT22;51663;52.310;17.016;2024-01-06T05:32:29;21.30;29.40
65072;DHT22;51663;52.310;17.016;2024-01-06T05:35:31;21.60;29.50
65072;DHT22;51663;52.310;17.016;2024-01-06T05:38:33;22.40;28.50
65072;DHT22;51663;52.310;17.016;2024-01-06T05:41:39;22.00;28.70
65072;DHT22;51663;52.310;17.016;2024-01-06T05:44:41;21.60;29.00
65072;DHT22;51663;52.310;17.016;2024-01-06T05:47:44;20.80;29.70
65072;DHT22;51663;52.310;17.016;2024-01-06T05:50:46;20.50;30.40
65072;DHT22;51663;52.310;17.016;2024-01-06T05:53:49;20.80;30.00
65072;DHT22;51663;52.310;17.016;2024-01-06T05:56:51;20.60;29.80
65072;DHT22;51663;52.310;17.016;2024-01-06T05:59:54;20.40;30.60
65072;DHT22;51663;52.310;17.016;2024-01-06T06:02:56;21.40;29.60
65072;DHT22;51663;52.310;17.016;2024-01-06T06:05:58;21.80;28.90
65072;DHT22;51663;52.310;17.016;2024-01-06T06:09:01;21.60;29.00
65072;DHT22;51663;52.310;17.016;2024-01-06T06:12:03;21.00;29.50
65072;DHT22;51663;52.310;17.016;2024-01-06T06:15:06;20.40;29.80
65072;DHT22;51663;52.310;17.016;2024-01-06T06:18:09;20.50;29.80
65072;DHT22;51663;52.310;17.016;2024-01-06T06:21:11;20.80;29.90
65072;DHT22;51663;52.310;17.016;2024-01-06T06:24:14;20.70;29.90
65072;DHT22;51663;52.310;17.016;2024-01-06T06:27:16;20.20;30.00
65072;DHT22;51663;52.310;17.016;2024-01-06T06:30:18;19.30;31.00
65072;DHT22;51663;52.310;17.016;2024-01-06T06:33:21;19.00;31.90
65072;DHT22;51663;52.310;17.016;2024-01-06T06:36:24;19.90;30.80
65072;DHT22;51663;52.310;17.016;2024-01-06T06:39:26;19.10;31.60
65072;DHT22;51663;52.310;17.016;2024-01-06T06:42:29;19.30;32.00
65072;DHT22;51663;52.310;17.016;2024-01-06T06:45:31;19.70;30.90
65072;DHT22;51663;52.310;17.016;2024-01-06T06:48:33;20.50;30.10
65072;DHT22;51663;52.310;17.016;2024-01-06T06:51:38;20.20;30.00
65072;DHT22;51663;52.310;17.016;2024-01-06T06:54:47;20.40;29.90
65072;DHT22;51663;52.310;17.016;2024-01-06T06:57:51;20.20;29.70
65072;DHT22;51663;52.310;17.016;2024-01-06T07:00:53;19.80;30.70
65072;DHT22;51663;52.310;17.016;2024-01-06T07:03:56;21.10;29.60
65072;DHT22;51663;52.310;17.016;2024-01-06T07:06:59;21.10;29.70
65072;DHT22;51663;52.310;17.016;2024-01-06T07:10:02;21.70;28.60
65072;DHT22;51663;52.310;17.016;2024-01-06T07:13:06;21.20;28.50
65072;DHT22;51663;52.310;17.016;2024-01-06T07:16:09;21.00;29.10
65072;DHT22;51663;52.310;17.016;2024-01-06T07:19:20;21.60;28.60
65072;DHT22;51663;52.310;17.016;2024-01-06T07:22:22;21.60;28.20
65072;DHT22;51663;52.310;17.016;2024-01-06T07:25:25;21.30;29.00
65072;DHT22;51663;52.310;17.016;2024-01-06T07:28:27;21.00;28.90
65072;DHT22;51663;52.310;17.016;2024-01-06T07:31:29;21.60;28.50
65072;DHT22;51663;52.310;17.016;2024-01-06T07:34:32;20.80;28.70
65072;DHT22;51663;52.310;17.016;2024-01-06T07:37:34;20.70;29.00
65072;DHT22;51663;52.310;17.016;2024-01-06T07:40:37;20.60;29.30
65072;DHT22;51663;52.310;17.016;2024-01-06T07:43:39;21.20;28.70
65072;DHT22;51663;52.310;17.016;2024-01-06T07:46:42;21.60;28.20
65072;DHT22;51663;52.310;17.016;2024-01-06T07:49:45;21.50;28.40
65072;DHT22;51663;52.310;17.016;2024-01-06T07:52:49;21.30;28.30
65072;DHT22;51663;52.310;17.016;2024-01-06T07:55:51;20.80;28.90
65072;DHT22;51663;52.310;17.016;2024-01-06T07:58:53;19.90;29.70
65072;DHT22;51663;52.310;17.016;2024-01-06T08:01:56;20.30;29.80
65072;DHT22;51663;52.310;17.016;2024-01-06T08:04:59;20.80;29.00
65072;DHT22;51663;52.310;17.016;2024-01-06T08:08:01;21.00;28.70
65072;DHT22;51663;52.310;17.016;2024-01-06T08:11:04;21.50;28.10
65072;DHT22;51663;52.310;17.016;2024-01-06T08:14:07;21.20;28.50
65072;DHT22;51663;52.310;17.016;2024-01-06T08:17:12;20.40;29.20
65072;DHT22;51663;52.310;17.016;2024-01-06T08:20:18;20.90;28.80
65072;DHT22;51663;52.310;17.016;2024-01-06T08:23:21;20.80;28.80
65072;DHT22;51663;52.310;17.016;2024-01-06T08:26:23;20.30;29.20
65072;DHT22;51663;52.310;17.016;2024-01-06T08:29:26;19.90;30.00
65072;DHT22;51663;52.310;17.016;2024-01-06T08:32:28;19.90;30.00
65072;DHT22;51663;52.310;17.016;2024-01-06T08:35:31;19.70;30.10
65072;DHT22;51663;52.310;17.016;2024-01-06T08:38:33;20.50;29.80
65072;DHT22;51663;52.310;17.016;2024-01-06T08:41:36;20.60;29.40
65072;DHT22;51663;52.310;17.016;2024-01-06T08:44:38;20.30;29.30
65072;DHT22;51663;52.310;17.016;2024-01-06T08:47:41;20.90;29.50
65072;DHT22;51663;52.310;17.016;2024-01-06T08:50:43;20.50;29.50
65072;DHT22;51663;52.310;17.016;2024-01-06T08:53:48;21.10;29.10
65072;DHT22;51663;52.310;17.016;2024-01-06T08:56:50;20.40;29.20
65072;DHT22;51663;52.310;17.016;2024-01-06T08:59:52;19.80;30.70
65072;DHT22;51663;52.310;17.016;2024-01-06T09:02:54;19.40;31.30
65072;DHT22;51663;52.310;17.016;2024-01-06T09:05:57;19.00;31.70
65072;DHT22;51663;52.310;17.016;2024-01-06T09:09:01;19.10;32.20
65072;DHT22;51663;52.310;17.016;2024-01-06T09:12:03;20.20;30.50
65072;DHT22;51663;52.310;17.016;2024-01-06T09:15:06;20.70;29.80
65072;DHT22;51663;52.310;17.016;2024-01-06T09:18:11;21.00;29.50
65072;DHT22;51663;52.310;17.016;2024-01-06T09:21:16;20.80;29.40
65072;DHT22;51663;52.310;17.016;2024-01-06T09:24:20;21.40;28.70
65072;DHT22;51663;52.310;17.016;2024-01-06T09:27:23;20.40;29.60
65072;DHT22;51663;52.310;17.016;2024-01-06T09:30:27;19.00;31.20
65072;DHT22;51663;52.310;17.016;2024-01-06T09:33:29;18.20;33.10
65072;DHT22;51663;52.310;17.016;2024-01-06T09:36:32;19.90;31.60
65072;DHT22;51663;52.310;17.016;2024-01-06T09:39:34;20.80;29.70
65072;DHT22;51663;52.310;17.016;2024-01-06T09:42:37;20.40;29.30
65072;DHT22;51663;52.310;17.016;2024-01-06T09:45:39;19.90;30.60
65072;DHT22;51663;52.310;17.016;2024-01-06T09:48:43;20.40;29.90
65072;DHT22;51663;52.310;17.016;2024-01-06T09:51:49;20.00;30.20
65072;DHT22;51663;52.310;17.016;2024-01-06T09:54:57;20.40;29.90
65072;DHT22;51663;52.310;17.016;2024-01-06T09:58:01;19.30;30.90
65072;DHT22;51663;52.310;17.016;2024-01-06T10:01:08;18.80;31.90
65072;DHT22;51663;52.310;17.016;2024-01-06T10:04:11;18.20;32.80
65072;DHT22;51663;52.310;17.016;2024-01-06T10:07:19;19.10;32.90
65072;DHT22;51663;52.310;17.016;2024-01-06T10:10:22;19.50;31.10
65072;DHT22;51663;52.310;17.016;2024-01-06T10:13:26;19.80;30.20
65072;DHT22;51663;52.310;17.016;2024-01-06T10:16:29;18.70;31.40
65072;DHT22;51663;52.310;17.016;2024-01-06T10:19:31;19.20;32.10
65072;DHT22;51663;52.310;17.016;2024-01-06T10:22:38;18.90;31.60
65072;DHT22;51663;52.310;17.016;2024-01-06T10:25:42;19.30;31.00
65072;DHT22;51663;52.310;17.016;2024-01-06T10:28:44;19.90;30.40
65072;DHT22;51663;52.310;17.016;2024-01-06T10:31:48;19.50;30.50
65072;DHT22;51663;52.310;17.016;2024-01-06T10:34:56;18.90;31.20
65072;DHT22;51663;52.310;17.016;2024-01-06T10:37:59;18.30;32.10
65072;DHT22;51663;52.310;17.016;2024-01-06T10:41:04;18.00;32.40
65072;DHT22;51663;52.310;17.016;2024-01-06T10:44:11;18.80;32.20
65072;DHT22;51663;52.310;17.016;2024-01-06T10:47:15;19.10;31.00
65072;DHT22;51663;52.310;17.016;2024-01-06T10:50:19;19.50;31.20
65072;DHT22;51663;52.310;17.016;2024-01-06T10:53:23;20.50;29.80
65072;DHT22;51663;52.310;17.016;2024-01-06T10:56:30;19.50;30.10
65072;DHT22;51663;52.310;17.016;2024-01-06T10:59:34;19.90;29.60
65072;DHT22;51663;52.310;17.016;2024-01-06T11:02:39;19.60;30.30
65072;DHT22;51663;52.310;17.016;2024-01-06T11:05:42;20.50;29.40
65072;DHT22;51663;52.310;17.016;2024-01-06T11:12:04;20.00;29.70
65072;DHT22;51663;52.310;17.016;2024-01-06T11:15:08;20.00;29.30
65072;DHT22;51663;52.310;17.016;2024-01-06T11:21:53;19.70;30.10
65072;DHT22;51663;52.310;17.016;2024-01-06T11:24:57;20.40;29.90
65072;DHT22;51663;52.310;17.016;2024-01-06T11:28:07;20.80;28.60
65072;DHT22;51663;52.310;17.016;2024-01-06T11:31:10;20.50;29.40
65072;DHT22;51663;52.310;17.016;2024-01-06T11:34:14;21.30;28.50
65072;DHT22;51663;52.310;17.016;2024-01-06T11:37:18;21.30;28.30
65072;DHT22;51663;52.310;17.016;2024-01-06T11:43:27;21.00;28.80
65072;DHT22;51663;52.310;17.016;2024-01-06T11:46:29;19.80;29.30
65072;DHT22;51663;52.310;17.016;2024-01-06T11:49:31;19.30;30.70
65072;DHT22;51663;52.310;17.016;2024-01-06T11:52:34;20.50;29.50
65072;DHT22;51663;52.310;17.016;2024-01-06T11:55:41;21.30;28.30
65072;DHT22;51663;52.310;17.016;2024-01-06T11:58:46;21.10;28.20
65072;DHT22;51663;52.310;17.016;2024-01-06T12:01:48;20.40;28.70
65072;DHT22;51663;52.310;17.016;2024-01-06T12:04:52;19.60;29.40
65072;DHT22;51663;52.310;17.016;2024-01-06T12:07:59;19.10;30.30
65072;DHT22;51663;52.310;17.016;2024-01-06T12:11:03;18.80;30.80
65072;DHT22;51663;52.310;17.016;2024-01-06T12:14:06;20.40;29.70
65072;DHT22;51663;52.310;17.016;2024-01-06T12:17:09;20.50;28.40
65072;DHT22;51663;52.310;17.016;2024-01-06T12:20:11;20.60;28.30
65072;DHT22;51663;52.310;17.016;2024-01-06T12:23:27;19.30;30.00
65072;DHT22;51663;52.310;17.016;2024-01-06T12:26:29;20.00;29.60
65072;DHT22;51663;52.310;17.016;2024-01-06T12:29:32;20.20;28.80
65072;DHT22;51663;52.310;17.016;2024-01-06T12:32:34;20.10;29.10
65072;DHT22;51663;52.310;17.016;2024-01-06T12:35:36;19.70;29.30
65072;DHT22;51663;52.310;17.016;2024-01-06T12:38:42;19.30;29.90
65072;DHT22;51663;52.310;17.016;2024-01-06T12:41:46;20.20;29.30
65072;DHT22;51663;52.310;17.016;2024-01-06T12:44:48;20.40;28.60
65072;DHT22;51663;52.310;17.016;2024-01-06T12:47:50;20.60;28.00
65072;DHT22;51663;52.310;17.016;2024-01-06T12:50:54;20.60;28.30
65072;DHT22;51663;52.310;17.016;2024-01-06T12:53:56;21.50;27.30
65072;DHT22;51663;52.310;17.016;2024-01-06T12:56:58;21.70;27.00
65072;DHT22;51663;52.310;17.016;2024-01-06T13:00:01;21.50;26.70
65072;DHT22;51663;52.310;17.016;2024-01-06T13:03:04;20.40;28.10
65072;DHT22;51663;52.310;17.016;2024-01-06T13:06:07;21.00;27.70
65072;DHT22;51663;52.310;17.016;2024-01-06T13:09:10;21.30;27.40
65072;DHT22;51663;52.310;17.016;2024-01-06T13:12:19;21.10;27.30
65072;DHT22;51663;52.310;17.016;2024-01-06T13:15:21;21.50;27.00
65072;DHT22;51663;52.310;17.016;2024-01-06T13:18:25;21.10;27.10
65072;DHT22;51663;52.310;17.016;2024-01-06T13:21:27;20.50;28.20
65072;DHT22;51663;52.310;17.016;2024-01-06T13:24:31;20.10;28.00
65072;DHT22;51663;52.310;17.016;2024-01-06T13:27:33;19.90;28.30
65072;DHT22;51663;52.310;17.016;2024-01-06T13:30:36;20.60;27.80
65072;DHT22;51663;52.310;17.016;2024-01-06T13:33:40;21.00;27.30
65072;DHT22;51663;52.310;17.016;2024-01-06T13:36:44;21.30;26.90
65072;DHT22;51663;52.310;17.016;2024-01-06T13:39:48;20.60;27.40
65072;DHT22;51663;52.310;17.016;2024-01-06T13:42:51;21.00;27.30
65072;DHT22;51663;52.310;17.016;2024-01-06T13:45:55;20.30;27.40
65072;DHT22;51663;52.310;17.016;2024-01-06T13:48:58;19.60;28.90
65072;DHT22;51663;52.310;17.016;2024-01-06T13:52:01;19.00;29.10
65072;DHT22;51663;52.310;17.016;2024-01-06T13:55:04;19.00;29.00
65072;DHT22;51663;52.310;17.016;2024-01-06T13:58:06;19.50;28.90
65072;DHT22;51663;52.310;17.016;2024-01-06T14:01:14;19.90;28.50
65072;DHT22;51663;52.310;17.016;2024-01-06T14:04:18;19.60;28.30
65072;DHT22;51663;52.310;17.016;2024-01-06T14:07:20;19.00;28.80
65072;DHT22;51663;52.310;17.016;2024-01-06T14:10:24;18.00;30.80
65072;DHT22;51663;52.310;17.016;2024-01-06T14:13:27;18.70;29.50
65072;DHT22;51663;52.310;17.016;2024-01-06T14:16:32;19.60;28.70
65072;DHT22;51663;52.310;17.016;2024-01-06T14:19:35;19.90;28.80
65072;DHT22;51663;52.310;17.016;2024-01-06T14:22:37;19.90;28.00
65072;DHT22;51663;52.310;17.016;2024-01-06T14:25:40;20.40;27.80
65072;DHT22;51663;52.310;17.016;2024-01-06T14:28:42;19.80;27.90
65072;DHT22;51663;52.310;17.016;2024-01-06T14:31:44;19.60;28.70
65072;DHT22;51663;52.310;17.016;2024-01-06T14:34:47;20.80;27.50
65072;DHT22;51663;52.310;17.016;2024-01-06T14:37:49;21.60;26.40
65072;DHT22;51663;52.310;17.016;2024-01-06T14:40:53;21.30;26.80
65072;DHT22;51663;52.310;17.016;2024-01-06T14:43:55;21.20;26.60
65072;DHT22;51663;52.310;17.016;2024-01-06T14:46:57;20.70;26.90
65072;DHT22;51663;52.310;17.016;2024-01-06T14:50:00;20.40;27.10
65072;DHT22;51663;52.310;17.016;2024-01-06T14:53:03;20.40;27.70
65072;DHT22;51663;52.310;17.016;2024-01-06T14:56:05;19.90;27.80
65072;DHT22;51663;52.310;17.016;2024-01-06T14:59:08;20.10;27.80
65072;DHT22;51663;52.310;17.016;2024-01-06T15:02:12;20.60;27.40
65072;DHT22;51663;52.310;17.016;2024-01-06T15:05:15;20.30;27.20
65072;DHT22;51663;52.310;17.016;2024-01-06T15:08:18;19.80;28.00
65072;DHT22;51663;52.310;17.016;2024-01-06T15:11:21;19.40;28.30
65072;DHT22;51663;52.310;17.016;2024-01-06T15:14:23;19.60;28.00
65072;DHT22;51663;52.310;17.016;2024-01-06T15:17:26;20.60;27.20
65072;DHT22;51663;52.310;17.016;2024-01-06T15:20:28;20.50;26.80
65072;DHT22;51663;52.310;17.016;2024-01-06T15:23:31;20.80;27.00
65072;DHT22;51663;52.310;17.016;2024-01-06T15:26:34;19.60;27.70
65072;DHT22;51663;52.310;17.016;2024-01-06T15:29:36;20.40;27.80
65072;DHT22;51663;52.310;17.016;2024-01-06T15:32:41;19.90;27.30
65072;DHT22;51663;52.310;17.016;2024-01-06T15:35:44;19.40;27.90
65072;DHT22;51663;52.310;17.016;2024-01-06T15:38:48;19.60;28.00
65072;DHT22;51663;52.310;17.016;2024-01-06T15:41:50;19.20;28.30
65072;DHT22;51663;52.310;17.016;2024-01-06T15:44:54;18.90;28.70
65072;DHT22;51663;52.310;17.016;2024-01-06T15:47:57;19.90;27.50
65072;DHT22;51663;52.310;17.016;2024-01-06T15:51:00;19.80;27.60
65072;DHT22;51663;52.310;17.016;2024-01-06T15:54:03;19.60;27.70
65072;DHT22;51663;52.310;17.016;2024-01-06T15:57:05;18.50;28.40
65072;DHT22;51663;52.310;17.016;2024-01-06T16:00:08;18.60;28.70
65072;DHT22;51663;52.310;17.016;2024-01-06T16:03:10;19.10;28.00
65072;DHT22;51663;52.310;17.016;2024-01-06T16:06:14;18.70;28.10
65072;DHT22;51663;52.310;17.016;2024-01-06T16:09:17;17.60;30.10
65072;DHT22;51663;52.310;17.016;2024-01-06T16:12:22;18.60;29.50
65072;DHT22;51663;52.310;17.016;2024-01-06T16:15:27;18.10;29.30
65072;DHT22;51663;52.310;17.016;2024-01-06T16:18:29;16.90;30.70
65072;DHT22;51663;52.310;17.016;2024-01-06T16:21:32;17.80;30.30
65072;DHT22;51663;52.310;17.016;2024-01-06T16:24:37;19.40;28.50
65072;DHT22;51663;52.310;17.016;2024-01-06T16:27:39;19.20;27.90
65072;DHT22;51663;52.310;17.016;2024-01-06T16:30:42;18.80;28.30
65072;DHT22;51663;52.310;17.016;2024-01-06T16:33:45;18.60;28.80
65072;DHT22;51663;52.310;17.016;2024-01-06T16:36:47;17.70;29.60
65072;DHT22;51663;52.310;17.016;2024-01-06T16:39:49;17.70;30.20
65072;DHT22;51663;52.310;17.016;2024-01-06T16:42:53;18.40;29.20
65072;DHT22;51663;52.310;17.016;2024-01-06T16:45:55;18.30;29.10
65072;DHT22;51663;52.310;17.016;2024-01-06T16:48:58;19.20;28.40
65072;DHT22;51663;52.310;17.016;2024-01-06T16:52:00;19.20;28.40
65072;DHT22;51663;52.310;17.016;2024-01-06T16:55:06;19.50;28.30
65072;DHT22;51663;52.310;17.016;2024-01-06T16:58:10;19.00;28.70
65072;DHT22;51663;52.310;17.016;2024-01-06T17:01:13;18.80;28.60
65072;DHT22;51663;52.310;17.016;2024-01-06T17:04:17;17.90;29.60
65072;DHT22;51663;52.310;17.016;2024-01-06T17:07:19;18.10;29.80
65072;DHT22;51663;52.310;17.016;2024-01-06T17:10:22;18.30;29.20
65072;DHT22;51663;52.310;17.016;2024-01-06T17:13:26;18.80;29.20
65072;DHT22;51663;52.310;17.016;2024-01-06T17:16:28;19.00;28.70
65072;DHT22;51663;52.310;17.016;2024-01-06T17:19:32;17.90;30.00
65072;DHT22;51663;52.310;17.016;2024-01-06T17:22:34;18.70;29.10
65072;DHT22;51663;52.310;17.016;2024-01-06T17:25:37;19.00;28.80
65072;DHT22;51663;52.310;17.016;2024-01-06T17:28:40;17.90;29.40
65072;DHT22;51663;52.310;17.016;2024-01-06T17:31:43;17.40;30.50
65072;DHT22;51663;52.310;17.016;2024-01-06T17:34:46;17.70;30.30
65072;DHT22;51663;52.310;17.016;2024-01-06T17:37:48;17.80;30.00
65072;DHT22;51663;52.310;17.016;2024-01-06T17:40:51;17.90;30.00
65072;DHT22;51663;52.310;17.016;2024-01-06T17:43:55;18.30;29.50
65072;DHT22;51663;52.310;17.016;2024-01-06T17:47:00;18.60;28.80
65072;DHT22;51663;52.310;17.016;2024-01-06T17:50:03;18.80;28.80
65072;DHT22;51663;52.310;17.016;2024-01-06T17:53:05;18.80;28.40
65072;DHT22;51663;52.310;17.016;2024-01-06T17:56:07;18.20;28.80
65072;DHT22;51663;52.310;17.016;2024-01-06T17:59:10;19.00;28.50
65072;DHT22;51663;52.310;17.016;2024-01-06T18:02:16;18.00;29.00
65072;DHT22;51663;52.310;17.016;2024-01-06T18:05:20;19.00;28.50
65072;DHT22;51663;52.310;17.016;2024-01-06T18:08:22;18.80;28.20
65072;DHT22;51663;52.310;17.016;2024-01-06T18:11:25;18.80;28.10
65072;DHT22;51663;52.310;17.016;2024-01-06T18:14:27;18.50;27.90
65072;DHT22;51663;52.310;17.016;2024-01-06T18:17:38;17.90;29.10
65072;DHT22;51663;52.310;17.016;2024-01-06T18:20:40;18.30;28.30
65072;DHT22;51663;52.310;17.016;2024-01-06T18:23:51;17.40;29.50
65072;DHT22;51663;52.310;17.016;2024-01-06T18:26:53;18.70;28.80
65072;DHT22;51663;52.310;17.016;2024-01-06T18:29:56;19.10;27.80
65072;DHT22;51663;52.310;17.016;2024-01-06T18:32:58;18.60;28.30
65072;DHT22;51663;52.310;17.016;2024-01-06T18:36:01;18.60;27.90
65072;DHT22;51663;52.310;17.016;2024-01-06T18:39:03;19.00;27.80
65072;DHT22;51663;52.310;17.016;2024-01-06T18:42:09;18.50;27.70
65072;DHT22;51663;52.310;17.016;2024-01-06T18:45:13;19.30;27.00
65072;DHT22;51663;52.310;17.016;2024-01-06T18:48:17;19.10;26.70
65072;DHT22;51663;52.310;17.016;2024-01-06T18:51:20;19.00;27.70
65072;DHT22;51663;52.310;17.016;2024-01-06T18:54:22;18.70;27.50
65072;DHT22;51663;52.310;17.016;2024-01-06T18:57:35;18.90;27.20
65072;DHT22;51663;52.310;17.016;2024-01-06T19:00:40;19.80;26.50
65072;DHT22;51663;52.310;17.016;2024-01-06T19:03:43;19.70;26.50
65072;DHT22;51663;52.310;17.016;2024-01-06T19:06:47;20.30;26.20
65072;DHT22;51663;52.310;17.016;2024-01-06T19:09:51;20.80;25.60
65072;DHT22;51663;52.310;17.016;2024-01-06T19:12:56;18.90;26.60
65072;DHT22;51663;52.310;17.016;2024-01-06T19:15:59;18.40;27.70
65072;DHT22;51663;52.310;17.016;2024-01-06T19:19:02;19.20;26.70
65072;DHT22;51663;52.310;17.016;2024-01-06T19:22:06;19.50;26.90
65072;DHT22;51663;52.310;17.016;2024-01-06T19:25:13;19.00;26.90
65072;DHT22;51663;52.310;17.016;2024-01-06T19:28:15;18.40;27.30
65072;DHT22;51663;52.310;17.016;2024-01-06T19:31:18;18.20;27.80
65072;DHT22;51663;52.310;17.016;2024-01-06T19:34:21;18.40;27.80
65072;DHT22;51663;52.310;17.016;2024-01-06T19:37:25;18.30;27.70
65072;DHT22;51663;52.310;17.016;2024-01-06T19:40:27;18.30;27.70